Gurley, Nebraska
Current Conditions -  °F | °C
As of 4:53 AM on Wednesday 28 Jan 2015 (Local Time) from KSNY Reporting Station
Clear Clear  
Wind Chill: 37°   Ceiling: Unl
Heat Index: 44°   Visibility: 10mi
Dew Point: 31°   Wind: 14mph
Humidity: 60%   Direction: 290°WNW
Pressure: 29.94"   Gusts: NA
Location:  41.32°N, 102.97°W
Report Text: KSNY 281153Z AUTO 29012KT 10SM CLR 07/M01 A2994 RMK AO2 SLP127 T00671006 10078 20028 55005
Loading
Personal Weather Stations






























Interactive Weather Map New forecast layout! Learn more

10-Day Weather Forecast

Advertisements
Track Severe Weather on mobile